sensor_id;sensor_type;location;lat;lon;timestamp;pressure;altitude;pressure_sealevel;temperature;humidity
55032;BME280;40928;51.076;7.950;2023-02-16T00:00:16;97884.56;;;0.81;100.00
55032;BME280;40928;51.076;7.950;2023-02-16T00:02:44;97882.56;;;0.74;100.00
55032;BME280;40928;51.076;7.950;2023-02-16T00:05:30;97877.41;;;0.65;100.00
55032;BME280;40928;51.076;7.950;2023-02-16T00:07:57;97882.66;;;0.65;100.00
55032;BME280;40928;51.076;7.950;2023-02-16T00:10:25;97882.97;;;0.62;100.00
55032;BME280;40928;51.076;7.950;2023-02-16T00:12:51;97881.78;;;0.56;100.00
55032;BME280;40928;51.076;7.950;2023-02-16T00:15:36;97890.16;;;0.59;100.00
55032;BME280;40928;51.076;7.950;2023-02-16T00:18:02;97893.44;;;0.53;100.00
55032;BME280;40928;51.076;7.950;2023-02-16T00:20:29;97886.66;;;0.51;100.00
55032;BME280;40928;51.076;7.950;2023-02-16T00:22:55;97888.59;;;0.49;100.00
55032;BME280;40928;51.076;7.950;2023-02-16T00:25:20;97893.56;;;0.52;100.00
55032;BME280;40928;51.076;7.950;2023-02-16T00:27:46;97891.59;;;0.54;100.00
55032;BME280;40928;51.076;7.950;2023-02-16T00:30:20;97892.22;;;0.48;100.00
55032;BME280;40928;51.076;7.950;2023-02-16T00:32:48;97882.25;;;0.33;100.00
55032;BME280;40928;51.076;7.950;2023-02-16T00:35:19;97885.41;;;0.37;100.00
55032;BME280;40928;51.076;7.950;2023-02-16T00:37:45;97893.13;;;0.38;100.00
55032;BME280;40928;51.076;7.950;2023-02-16T00:40:13;97878.34;;;0.37;100.00
55032;BME280;40928;51.076;7.950;2023-02-16T00:42:39;97882.63;;;0.38;100.00
55032;BME280;40928;51.076;7.950;2023-02-16T00:45:14;97875.59;;;0.39;100.00
55032;BME280;40928;51.076;7.950;2023-02-16T00:47:43;97875.22;;;0.34;100.00
55032;BME280;40928;51.076;7.950;2023-02-16T00:50:23;97869.75;;;0.27;100.00
55032;BME280;40928;51.076;7.950;2023-02-16T00:52:50;97865.59;;;0.24;100.00
55032;BME280;40928;51.076;7.950;2023-02-16T00:55:22;97862.00;;;0.25;100.00
55032;BME280;40928;51.076;7.950;2023-02-16T00:58:14;97855.75;;;0.26;100.00
55032;BME280;40928;51.076;7.950;2023-02-16T01:00:43;97857.06;;;0.22;100.00
55032;BME280;40928;51.076;7.950;2023-02-16T01:03:16;97851.44;;;0.17;100.00
55032;BME280;40928;51.076;7.950;2023-02-16T01:05:42;97851.22;;;0.10;100.00
55032;BME280;40928;51.076;7.950;2023-02-16T01:08:10;97850.25;;;0.11;100.00
55032;BME280;40928;51.076;7.950;2023-02-16T01:10:55;97852.88;;;0.11;100.00
55032;BME280;40928;51.076;7.950;2023-02-16T01:13:27;97856.72;;;-0.01;100.00
55032;BME280;40928;51.076;7.950;2023-02-16T01:15:54;97857.69;;;-0.02;100.00
55032;BME280;40928;51.076;7.950;2023-02-16T01:18:20;97862.84;;;-0.10;100.00
55032;BME280;40928;51.076;7.950;2023-02-16T01:20:46;97858.09;;;-0.07;100.00
55032;BME280;40928;51.076;7.950;2023-02-16T01:23:12;97863.38;;;-0.07;100.00
55032;BME280;40928;51.076;7.950;2023-02-16T01:25:40;97860.22;;;-0.10;100.00
55032;BME280;40928;51.076;7.950;2023-02-16T01:28:20;97856.41;;;-0.16;100.00
55032;BME280;40928;51.076;7.950;2023-02-16T01:30:47;97847.16;;;-0.20;100.00
55032;BME280;40928;51.076;7.950;2023-02-16T01:33:13;97838.59;;;-0.22;100.00
55032;BME280;40928;51.076;7.950;2023-02-16T01:35:39;97836.38;;;-0.17;100.00
55032;BME280;40928;51.076;7.950;2023-02-16T01:38:04;97844.41;;;-0.19;100.00
55032;BME280;40928;51.076;7.950;2023-02-16T01:45:50;97832.16;;;-0.28;100.00
55032;BME280;40928;51.076;7.950;2023-02-16T01:48:27;97831.63;;;-0.32;100.00
55032;BME280;40928;51.076;7.950;2023-02-16T01:51:01;97830.44;;;-0.37;100.00
55032;BME280;40928;51.076;7.950;2023-02-16T01:56:05;97830.06;;;-0.42;100.00
55032;BME280;40928;51.076;7.950;2023-02-16T01:58:49;97830.97;;;-0.52;100.00
55032;BME280;40928;51.076;7.950;2023-02-16T02:01:37;97823.66;;;-0.58;100.00
55032;BME280;40928;51.076;7.950;2023-02-16T02:04:47;97821.56;;;-0.54;100.00
55032;BME280;40928;51.076;7.950;2023-02-16T02:07:44;97817.59;;;-0.58;100.00
55032;BME280;40928;51.076;7.950;2023-02-16T02:10:38;97822.56;;;-0.55;100.00
55032;BME280;40928;51.076;7.950;2023-02-16T02:13:10;97828.91;;;-0.58;100.00
55032;BME280;40928;51.076;7.950;2023-02-16T02:15:38;97819.69;;;-0.62;100.00
55032;BME280;40928;51.076;7.950;2023-02-16T02:18:04;97825.94;;;-0.63;100.00
55032;BME280;40928;51.076;7.950;2023-02-16T02:37:10;97816.59;;;-0.75;100.00
55032;BME280;40928;51.076;7.950;2023-02-16T02:45:04;97805.88;;;-0.82;100.00
55032;BME280;40928;51.076;7.950;2023-02-16T02:47:42;97802.44;;;-0.83;100.00
55032;BME280;40928;51.076;7.950;2023-02-16T02:53:01;97814.34;;;-0.88;100.00
55032;BME280;40928;51.076;7.950;2023-02-16T02:55:30;97815.44;;;-0.91;100.00
55032;BME280;40928;51.076;7.950;2023-02-16T02:58:36;97810.91;;;-0.99;100.00
55032;BME280;40928;51.076;7.950;2023-02-16T03:01:22;97813.00;;;-1.02;100.00
55032;BME280;40928;51.076;7.950;2023-02-16T03:03:53;97816.47;;;-1.02;100.00
55032;BME280;40928;51.076;7.950;2023-02-16T03:06:25;97813.97;;;-1.03;100.00
55032;BME280;40928;51.076;7.950;2023-02-16T03:08:59;97803.78;;;-1.07;100.00
55032;BME280;40928;51.076;7.950;2023-02-16T03:11:27;97806.03;;;-1.12;100.00
55032;BME280;40928;51.076;7.950;2023-02-16T03:14:27;97808.78;;;-1.13;100.00
55032;BME280;40928;51.076;7.950;2023-02-16T03:17:00;97805.22;;;-1.22;100.00
55032;BME280;40928;51.076;7.950;2023-02-16T03:19:47;97804.84;;;-1.27;100.00
55032;BME280;40928;51.076;7.950;2023-02-16T03:26:19;97800.03;;;-1.32;100.00
55032;BME280;40928;51.076;7.950;2023-02-16T03:29:04;97795.63;;;-1.31;100.00
55032;BME280;40928;51.076;7.950;2023-02-16T03:31:40;97790.66;;;-1.34;100.00
55032;BME280;40928;51.076;7.950;2023-02-16T03:34:06;97790.53;;;-1.33;100.00
55032;BME280;40928;51.076;7.950;2023-02-16T03:36:35;97788.72;;;-1.32;100.00
55032;BME280;40928;51.076;7.950;2023-02-16T03:39:02;97798.41;;;-1.33;100.00
55032;BME280;40928;51.076;7.950;2023-02-16T03:41:33;97784.31;;;-1.32;100.00
55032;BME280;40928;51.076;7.950;2023-02-16T03:43:59;97787.22;;;-1.35;100.00
55032;BME280;40928;51.076;7.950;2023-02-16T03:46:24;97780.47;;;-1.38;100.00
55032;BME280;40928;51.076;7.950;2023-02-16T03:48:50;97787.50;;;-1.38;100.00
55032;BME280;40928;51.076;7.950;2023-02-16T03:51:15;97784.06;;;-1.39;100.00
55032;BME280;40928;51.076;7.950;2023-02-16T03:53:41;97787.22;;;-1.35;100.00
55032;BME280;40928;51.076;7.950;2023-02-16T03:56:07;97775.91;;;-1.35;100.00
55032;BME280;40928;51.076;7.950;2023-02-16T03:58:32;97773.72;;;-1.40;100.00
55032;BME280;40928;51.076;7.950;2023-02-16T04:00:58;97780.47;;;-1.38;100.00
55032;BME280;40928;51.076;7.950;2023-02-16T04:03:25;97775.13;;;-1.46;100.00
55032;BME280;40928;51.076;7.950;2023-02-16T04:05:50;97779.69;;;-1.48;100.00
55032;BME280;40928;51.076;7.950;2023-02-16T04:08:16;97777.34;;;-1.51;100.00
55032;BME280;40928;51.076;7.950;2023-02-16T04:10:41;97784.16;;;-1.58;100.00
55032;BME280;40928;51.076;7.950;2023-02-16T04:13:07;97784.00;;;-1.57;100.00
55032;BME280;40928;51.076;7.950;2023-02-16T04:15:33;97779.72;;;-1.58;100.00
55032;BME280;40928;51.076;7.950;2023-02-16T04:17:59;97784.16;;;-1.58;100.00
55032;BME280;40928;51.076;7.950;2023-02-16T04:20:30;97779.59;;;-1.56;100.00
55032;BME280;40928;51.076;7.950;2023-02-16T04:22:56;97779.97;;;-1.51;100.00
55032;BME280;40928;51.076;7.950;2023-02-16T04:25:22;97782.59;;;-1.51;100.00
55032;BME280;40928;51.076;7.950;2023-02-16T04:27:49;97777.78;;;-1.56;100.00
55032;BME280;40928;51.076;7.950;2023-02-16T04:30:18;97777.25;;;-1.59;100.00
55032;BME280;40928;51.076;7.950;2023-02-16T04:32:44;97770.91;;;-1.66;100.00
55032;BME280;40928;51.076;7.950;2023-02-16T04:35:10;97775.34;;;-1.67;100.00
55032;BME280;40928;51.076;7.950;2023-02-16T04:37:35;97782.50;;;-1.69;100.00
55032;BME280;40928;51.076;7.950;2023-02-16T04:40:02;97780.72;;;-1.69;100.00
55032;BME280;40928;51.076;7.950;2023-02-16T04:42:27;97772.75;;;-1.77;100.00
55032;BME280;40928;51.076;7.950;2023-02-16T04:44:53;97767.50;;;-1.77;100.00
55032;BME280;40928;51.076;7.950;2023-02-16T04:47:19;97779.47;;;-1.74;100.00
55032;BME280;40928;51.076;7.950;2023-02-16T04:49:44;97773.72;;;-1.78;100.00
55032;BME280;40928;51.076;7.950;2023-02-16T04:52:11;97781.16;;;-1.83;100.00
55032;BME280;40928;51.076;7.950;2023-02-16T04:54:37;97780.47;;;-1.85;100.00
55032;BME280;40928;51.076;7.950;2023-02-16T04:57:03;97793.16;;;-1.80;100.00
55032;BME280;40928;51.076;7.950;2023-02-16T04:59:29;97786.28;;;-1.91;100.00
55032;BME280;40928;51.076;7.950;2023-02-16T05:01:55;97786.81;;;-1.88;100.00
55032;BME280;40928;51.076;7.950;2023-02-16T05:04:22;97786.00;;;-1.88;100.00
55032;BME280;40928;51.076;7.950;2023-02-16T05:06:48;97785.72;;;-1.85;100.00
55032;BME280;40928;51.076;7.950;2023-02-16T05:09:14;97785.59;;;-1.84;100.00
55032;BME280;40928;51.076;7.950;2023-02-16T05:11:39;97781.16;;;-1.83;100.00
55032;BME280;40928;51.076;7.950;2023-02-16T05:14:29;97780.34;;;-1.84;100.00
55032;BME280;40928;51.076;7.950;2023-02-16T05:17:26;97776.50;;;-1.79;100.00
55032;BME280;40928;51.076;7.950;2023-02-16T05:19:57;97784.34;;;-1.79;100.00
55032;BME280;40928;51.076;7.950;2023-02-16T05:22:24;97779.22;;;-1.81;100.00
55032;BME280;40928;51.076;7.950;2023-02-16T05:24:50;97771.53;;;-1.82;100.00
55032;BME280;40928;51.076;7.950;2023-02-16T05:27:21;97770.69;;;-1.83;100.00
55032;BME280;40928;51.076;7.950;2023-02-16T05:29:47;97766.41;;;-1.84;100.00
55032;BME280;40928;51.076;7.950;2023-02-16T05:32:13;97773.88;;;-1.89;100.00
55032;BME280;40928;51.076;7.950;2023-02-16T05:34:38;97776.50;;;-1.89;100.00
55032;BME280;40928;51.076;7.950;2023-02-16T05:37:04;97772.78;;;-1.96;100.00
55032;BME280;40928;51.076;7.950;2023-02-16T05:39:30;97780.63;;;-1.96;100.00
55032;BME280;40928;51.076;7.950;2023-02-16T05:41:55;97775.41;;;-1.96;100.00
55032;BME280;40928;51.076;7.950;2023-02-16T05:44:21;97773.91;;;-1.99;100.00
55032;BME280;40928;51.076;7.950;2023-02-16T05:46:47;97783.25;;;-1.96;100.00
55032;BME280;40928;51.076;7.950;2023-02-16T05:49:13;97783.41;;;-1.98;100.00
55032;BME280;40928;51.076;7.950;2023-02-16T05:51:39;97781.88;;;-2.01;100.00
55032;BME280;40928;51.076;7.950;2023-02-16T05:54:06;97785.75;;;-2.05;100.00
55032;BME280;40928;51.076;7.950;2023-02-16T05:56:32;97783.41;;;-2.08;100.00
55032;BME280;40928;51.076;7.950;2023-02-16T05:58:59;97791.69;;;-2.03;100.00
55032;BME280;40928;51.076;7.950;2023-02-16T06:01:25;97788.75;;;-2.00;100.00
55032;BME280;40928;51.076;7.950;2023-02-16T06:03:51;97791.38;;;-2.00;100.00
55032;BME280;40928;51.076;7.950;2023-02-16T06:06:16;97787.25;;;-2.02;100.00
55032;BME280;40928;51.076;7.950;2023-02-16T06:08:42;97784.38;;;-2.09;100.00
55032;BME280;40928;51.076;7.950;2023-02-16T06:11:08;97785.34;;;-2.10;100.00
55032;BME280;40928;51.076;7.950;2023-02-16T06:13:54;97786.31;;;-2.11;100.00
55032;BME280;40928;51.076;7.950;2023-02-16T06:16:26;97787.97;;;-2.10;100.00
55032;BME280;40928;51.076;7.950;2023-02-16T06:19:11;97783.97;;;-2.14;100.00
55032;BME280;40928;51.076;7.950;2023-02-16T06:21:38;97787.28;;;-2.12;100.00
55032;BME280;40928;51.076;7.950;2023-02-16T06:24:07;97790.03;;;-2.13;100.00
55032;BME280;40928;51.076;7.950;2023-02-16T06:26:33;97783.69;;;-2.11;100.00
55032;BME280;40928;51.076;7.950;2023-02-16T06:28:59;97780.81;;;-2.08;100.00
55032;BME280;40928;51.076;7.950;2023-02-16T06:31:24;97784.78;;;-2.04;100.00
55032;BME280;40928;51.076;7.950;2023-02-16T06:33:50;97785.47;;;-2.02;100.00
55032;BME280;40928;51.076;7.950;2023-02-16T06:36:16;97782.84;;;-2.02;100.00
55032;BME280;40928;51.076;7.950;2023-02-16T06:38:46;97774.31;;;-2.04;100.00
55032;BME280;40928;51.076;7.950;2023-02-16T06:41:12;97778.88;;;-2.06;100.00
55032;BME280;40928;51.076;7.950;2023-02-16T06:43:54;97790.84;;;-2.13;100.00
55032;BME280;40928;51.076;7.950;2023-02-16T06:46:19;97789.63;;;-2.19;100.00
55032;BME280;40928;51.076;7.950;2023-02-16T06:48:45;97787.00;;;-2.19;100.00
55032;BME280;40928;51.076;7.950;2023-02-16T06:51:10;97787.28;;;-2.22;100.00
55032;BME280;40928;51.076;7.950;2023-02-16T06:53:35;97784.25;;;-2.27;100.00
55032;BME280;40928;51.076;7.950;2023-02-16T06:56:01;97786.72;;;-2.25;100.00
55032;BME280;40928;51.076;7.950;2023-02-16T06:58:26;97784.81;;;-2.23;100.00
55032;BME280;40928;51.076;7.950;2023-02-16T07:00:53;97791.13;;;-2.16;100.00
55032;BME280;40928;51.076;7.950;2023-02-16T07:03:19;97799.66;;;-2.14;100.00
55032;BME280;40928;51.076;7.950;2023-02-16T07:05:48;97795.00;;;-2.20;100.00
55032;BME280;40928;51.076;7.950;2023-02-16T07:08:13;97798.00;;;-2.15;100.00
55032;BME280;40928;51.076;7.950;2023-02-16T07:10:42;97788.38;;;-2.15;100.00
55032;BME280;40928;51.076;7.950;2023-02-16T07:13:08;97794.16;;;-2.01;100.00
55032;BME280;40928;51.076;7.950;2023-02-16T07:15:33;97793.59;;;-1.95;100.00
55032;BME280;40928;51.076;7.950;2023-02-16T07:17:59;97801.41;;;-1.85;100.00
55032;BME280;40928;51.076;7.950;2023-02-16T07:20:24;97796.19;;;-1.85;100.00
55032;BME280;40928;51.076;7.950;2023-02-16T07:22:51;97784.75;;;-1.84;100.00
55032;BME280;40928;51.076;7.950;2023-02-16T07:25:16;97792.31;;;-1.81;100.00
55032;BME280;40928;51.076;7.950;2023-02-16T07:27:42;97790.38;;;-1.79;100.00
55032;BME280;40928;51.076;7.950;2023-02-16T07:30:08;97788.47;;;-1.77;100.00
55032;BME280;40928;51.076;7.950;2023-02-16T07:32:35;97786.78;;;-1.68;100.00
55032;BME280;40928;51.076;7.950;2023-02-16T07:35:01;97786.06;;;-1.60;100.00
55032;BME280;40928;51.076;7.950;2023-02-16T07:37:27;97793.47;;;-1.46;100.00
55032;BME280;40928;51.076;7.950;2023-02-16T07:39:52;97793.97;;;-1.32;100.00
55032;BME280;40928;51.076;7.950;2023-02-16T07:42:19;97795.59;;;-1.21;100.00
55032;BME280;40928;51.076;7.950;2023-02-16T07:44:46;97801.88;;;-1.14;100.00
55032;BME280;40928;51.076;7.950;2023-02-16T07:47:11;97803.22;;;-1.00;100.00
55032;BME280;40928;51.076;7.950;2023-02-16T07:49:39;97800.50;;;-0.81;100.00
55032;BME280;40928;51.076;7.950;2023-02-16T07:52:04;97794.19;;;-0.70;100.00
55032;BME280;40928;51.076;7.950;2023-02-16T07:54:30;97798.63;;;-0.52;100.00
55032;BME280;40928;51.076;7.950;2023-02-16T07:56:56;97797.75;;;-0.43;100.00
55032;BME280;40928;51.076;7.950;2023-02-16T07:59:22;97806.38;;;-0.33;100.00
55032;BME280;40928;51.076;7.950;2023-02-16T08:01:47;97811.03;;;-0.26;100.00
55032;BME280;40928;51.076;7.950;2023-02-16T08:04:13;97809.53;;;-0.11;100.00
55032;BME280;40928;51.076;7.950;2023-02-16T08:06:38;97806.88;;;0.07;100.00
55032;BME280;40928;51.076;7.950;2023-02-16T08:09:04;97804.19;;;0.25;100.00
55032;BME280;40928;51.076;7.950;2023-02-16T08:11:30;97811.13;;;0.53;100.00
55032;BME280;40928;51.076;7.950;2023-02-16T08:13:58;97805.78;;;0.71;100.00
55032;BME280;40928;51.076;7.950;2023-02-16T08:16:26;97809.94;;;0.82;100.00
55032;BME280;40928;51.076;7.950;2023-02-16T08:18:54;97800.28;;;0.82;100.00
55032;BME280;40928;51.076;7.950;2023-02-16T08:21:22;97799.63;;;0.88;100.00
55032;BME280;40928;51.076;7.950;2023-02-16T08:23:56;97794.56;;;0.95;100.00
55032;BME280;40928;51.076;7.950;2023-02-16T08:26:24;97790.31;;;1.02;100.00
55032;BME280;40928;51.076;7.950;2023-02-16T08:28:51;97788.06;;;1.16;100.00
55032;BME280;40928;51.076;7.950;2023-02-16T08:31:19;97798.00;;;1.39;100.00
55032;BME280;40928;51.076;7.950;2023-02-16T08:33:47;97788.31;;;1.64;100.00
55032;BME280;40928;51.076;7.950;2023-02-16T08:36:18;97802.84;;;2.09;100.00
55032;BME280;40928;51.076;7.950;2023-02-16T08:38:45;97799.84;;;2.37;100.00
55032;BME280;40928;51.076;7.950;2023-02-16T08:41:10;97798.97;;;2.70;100.00
55032;BME280;40928;51.076;7.950;2023-02-16T08:43:36;97797.59;;;2.82;100.00
55032;BME280;40928;51.076;7.950;2023-02-16T08:46:02;97796.59;;;2.92;100.00
55032;BME280;40928;51.076;7.950;2023-02-16T08:48:27;97805.44;;;2.99;100.00
55032;BME280;40928;51.076;7.950;2023-02-16T08:51:00;97809.84;;;3.15;100.00
55032;BME280;40928;51.076;7.950;2023-02-16T08:53:25;97806.63;;;3.36;100.00
55032;BME280;40928;51.076;7.950;2023-02-16T08:55:53;97802.66;;;3.40;100.00
55032;BME280;40928;51.076;7.950;2023-02-16T08:58:19;97803.91;;;3.44;100.00
55032;BME280;40928;51.076;7.950;2023-02-16T09:00:44;97799.72;;;3.58;99.64
55032;BME280;40928;51.076;7.950;2023-02-16T09:03:10;97801.84;;;3.63;98.55
55032;BME280;40928;51.076;7.950;2023-02-16T09:05:35;97805.78;;;3.67;98.80
55032;BME280;40928;51.076;7.950;2023-02-16T09:08:01;97818.00;;;3.68;98.27
55032;BME280;40928;51.076;7.950;2023-02-16T09:10:27;97814.34;;;3.69;98.90
55032;BME280;40928;51.076;7.950;2023-02-16T09:12:53;97816.13;;;3.77;98.86
55032;BME280;40928;51.076;7.950;2023-02-16T09:15:18;97808.25;;;3.92;99.28
55032;BME280;40928;51.076;7.950;2023-02-16T09:17:45;97812.75;;;4.06;98.23
55032;BME280;40928;51.076;7.950;2023-02-16T09:20:11;97814.63;;;4.21;97.48
55032;BME280;40928;51.076;7.950;2023-02-16T09:22:36;97814.56;;;4.29;97.47
55032;BME280;40928;51.076;7.950;2023-02-16T09:25:04;97810.66;;;4.40;97.66
55032;BME280;40928;51.076;7.950;2023-02-16T09:27:31;97815.69;;;4.50;94.98
55032;BME280;40928;51.076;7.950;2023-02-16T09:29:58;97817.69;;;4.48;94.30
55032;BME280;40928;51.076;7.950;2023-02-16T09:32:27;97813.41;;;4.47;94.19
55032;BME280;40928;51.076;7.950;2023-02-16T09:34:53;97807.78;;;4.50;94.85
55032;BME280;40928;51.076;7.950;2023-02-16T09:37:19;97813.66;;;4.52;94.87
55032;BME280;40928;51.076;7.950;2023-02-16T09:39:45;97808.50;;;4.59;93.13
55032;BME280;40928;51.076;7.950;2023-02-16T09:45:15;97807.78;;;4.65;92.58
55032;BME280;40928;51.076;7.950;2023-02-16T09:47:43;97799.66;;;4.66;92.74
55032;BME280;40928;51.076;7.950;2023-02-16T09:50:14;97801.28;;;4.67;92.81
55032;BME280;40928;51.076;7.950;2023-02-16T09:52:51;97794.91;;;4.77;90.96
55032;BME280;40928;51.076;7.950;2023-02-16T09:55:18;97785.88;;;4.71;91.13
55032;BME280;40928;51.076;7.950;2023-02-16T09:57:57;97800.56;;;4.73;91.58
55032;BME280;40928;51.076;7.950;2023-02-16T10:11:26;97805.56;;;4.98;89.95
55032;BME280;40928;51.076;7.950;2023-02-16T10:14:16;97812.44;;;5.08;90.68
55032;BME280;40928;51.076;7.950;2023-02-16T10:19:47;97797.34;;;5.23;88.74
55032;BME280;40928;51.076;7.950;2023-02-16T10:22:22;97795.22;;;5.33;88.11
55032;BME280;40928;51.076;7.950;2023-02-16T10:24:58;97804.22;;;6.13;86.22
55032;BME280;40928;51.076;7.950;2023-02-16T10:27:31;97803.03;;;6.44;81.22
55032;BME280;40928;51.076;7.950;2023-02-16T10:29:59;97811.41;;;6.47;80.55
55032;BME280;40928;51.076;7.950;2023-02-16T10:32:27;97802.53;;;6.62;80.22
55032;BME280;40928;51.076;7.950;2023-02-16T10:35:14;97802.19;;;6.72;79.38
55032;BME280;40928;51.076;7.950;2023-02-16T10:37:55;97803.69;;;7.23;77.51
55032;BME280;40928;51.076;7.950;2023-02-16T10:40:28;97800.06;;;7.37;75.83
55032;BME280;40928;51.076;7.950;2023-02-16T10:48:15;97814.59;;;8.64;72.95
55032;BME280;40928;51.076;7.950;2023-02-16T10:50:44;97808.16;;;9.57;68.87
55032;BME280;40928;51.076;7.950;2023-02-16T10:53:28;97811.75;;;10.34;65.32
55032;BME280;40928;51.076;7.950;2023-02-16T10:55:58;97808.56;;;9.93;65.25
55032;BME280;40928;51.076;7.950;2023-02-16T10:58:38;97798.75;;;10.19;65.09
55032;BME280;40928;51.076;7.950;2023-02-16T11:01:16;97807.91;;;10.99;61.76
55032;BME280;40928;51.076;7.950;2023-02-16T11:03:48;97809.47;;;10.88;61.29
55032;BME280;40928;51.076;7.950;2023-02-16T11:08:48;97813.13;;;12.11;59.79
55032;BME280;40928;51.076;7.950;2023-02-16T11:11:14;97809.09;;;12.44;57.51
55032;BME280;40928;51.076;7.950;2023-02-16T11:13:46;97809.19;;;12.25;56.99
55032;BME280;40928;51.076;7.950;2023-02-16T11:16:18;97817.16;;;11.71;59.06
55032;BME280;40928;51.076;7.950;2023-02-16T11:18:48;97801.22;;;10.71;61.14
55032;BME280;40928;51.076;7.950;2023-02-16T11:21:20;97810.22;;;10.51;63.71
55032;BME280;40928;51.076;7.950;2023-02-16T11:23:57;97800.41;;;10.13;65.32
55032;BME280;40928;51.076;7.950;2023-02-16T11:26:24;97801.84;;;9.45;68.55
55032;BME280;40928;51.076;7.950;2023-02-16T11:28:51;97807.59;;;9.42;69.39
55032;BME280;40928;51.076;7.950;2023-02-16T11:31:35;97787.06;;;8.90;71.96
55032;BME280;40928;51.076;7.950;2023-02-16T11:37:04;97799.22;;;8.26;76.66
55032;BME280;40928;51.076;7.950;2023-02-16T11:39:36;97801.88;;;8.12;77.63
55032;BME280;40928;51.076;7.950;2023-02-16T11:44:53;97791.59;;;7.82;79.73
55032;BME280;40928;51.076;7.950;2023-02-16T11:49:47;97789.72;;;7.62;81.60
55032;BME280;40928;51.076;7.950;2023-02-16T11:52:27;97784.63;;;7.61;82.29
55032;BME280;40928;51.076;7.950;2023-02-16T11:54:56;97781.13;;;7.60;82.69
55032;BME280;40928;51.076;7.950;2023-02-16T11:59:54;97773.75;;;7.56;83.18
55032;BME280;40928;51.076;7.950;2023-02-16T12:02:48;97774.34;;;7.44;85.00
55032;BME280;40928;51.076;7.950;2023-02-16T12:11:01;97763.25;;;7.34;86.63
55032;BME280;40928;51.076;7.950;2023-02-16T12:16:26;97765.53;;;7.44;86.15
55032;BME280;40928;51.076;7.950;2023-02-16T12:21:47;97762.09;;;7.57;86.02
55032;BME280;40928;51.076;7.950;2023-02-16T12:36:17;97737.19;;;8.12;83.01
55032;BME280;40928;51.076;7.950;2023-02-16T12:44:41;97733.28;;;8.41;82.30
55032;BME280;40928;51.076;7.950;2023-02-16T12:47:17;97735.97;;;8.34;82.87
55032;BME280;40928;51.076;7.950;2023-02-16T12:50:00;97730.84;;;8.46;82.55
55032;BME280;40928;51.076;7.950;2023-02-16T12:55:27;97710.41;;;8.13;82.74
55032;BME280;40928;51.076;7.950;2023-02-16T12:58:21;97716.75;;;8.05;83.69
55032;BME280;40928;51.076;7.950;2023-02-16T13:00:50;97730.22;;;8.04;84.17
55032;BME280;40928;51.076;7.950;2023-02-16T13:05:51;97735.16;;;8.00;84.82
55032;BME280;40928;51.076;7.950;2023-02-16T13:11:47;97738.00;;;7.78;86.64
55032;BME280;40928;51.076;7.950;2023-02-16T13:14:20;97737.41;;;7.76;87.57
55032;BME280;40928;51.076;7.950;2023-02-16T13:16:56;97731.03;;;7.64;88.47
55032;BME280;40928;51.076;7.950;2023-02-16T13:19:24;97715.06;;;7.57;89.15
55032;BME280;40928;51.076;7.950;2023-02-16T13:24:52;97710.13;;;7.41;91.41
55032;BME280;40928;51.076;7.950;2023-02-16T13:27:52;97703.81;;;7.49;90.37
55032;BME280;40928;51.076;7.950;2023-02-16T13:36:20;97691.16;;;7.51;92.83
55032;BME280;40928;51.076;7.950;2023-02-16T13:39:33;97685.66;;;7.52;93.61
55032;BME280;40928;51.076;7.950;2023-02-16T13:45:02;97668.00;;;8.18;90.72
55032;BME280;40928;51.076;7.950;2023-02-16T13:47:32;97672.03;;;8.61;88.69
55032;BME280;40928;51.076;7.950;2023-02-16T13:50:00;97689.59;;;8.76;86.90
55032;BME280;40928;51.076;7.950;2023-02-16T13:52:34;97703.34;;;8.79;86.78
55032;BME280;40928;51.076;7.950;2023-02-16T13:55:04;97699.47;;;8.68;87.67
55032;BME280;40928;51.076;7.950;2023-02-16T13:57:58;97698.06;;;8.59;86.10
55032;BME280;40928;51.076;7.950;2023-02-16T14:03:03;97678.81;;;8.57;87.07
55032;BME280;40928;51.076;7.950;2023-02-16T14:05:33;97667.38;;;8.50;87.04
55032;BME280;40928;51.076;7.950;2023-02-16T14:08:20;97687.63;;;8.58;86.82
55032;BME280;40928;51.076;7.950;2023-02-16T14:13:43;97682.72;;;8.55;87.02
55032;BME280;40928;51.076;7.950;2023-02-16T14:18:41;97672.72;;;8.30;88.07
55032;BME280;40928;51.076;7.950;2023-02-16T14:21:39;97660.41;;;8.42;87.17
55032;BME280;40928;51.076;7.950;2023-02-16T14:24:27;97647.09;;;8.49;87.26
55032;BME280;40928;51.076;7.950;2023-02-16T14:29:30;97635.50;;;8.82;86.32
55032;BME280;40928;51.076;7.950;2023-02-16T14:32:21;97633.81;;;9.26;83.71
55032;BME280;40928;51.076;7.950;2023-02-16T14:35:18;97625.75;;;9.65;81.96
55032;BME280;40928;51.076;7.950;2023-02-16T14:46:29;97603.69;;;11.97;69.58
55032;BME280;40928;51.076;7.950;2023-02-16T14:57:38;97608.44;;;12.42;64.93
55032;BME280;40928;51.076;7.950;2023-02-16T15:02:39;97609.34;;;12.60;63.59
55032;BME280;40928;51.076;7.950;2023-02-16T15:05:33;97616.16;;;13.25;61.38
55032;BME280;40928;51.076;7.950;2023-02-16T15:10:33;97621.72;;;11.78;66.29
55032;BME280;40928;51.076;7.950;2023-02-16T15:13:01;97607.94;;;11.38;68.45
55032;BME280;40928;51.076;7.950;2023-02-16T15:15:48;97615.25;;;10.89;69.33
55032;BME280;40928;51.076;7.950;2023-02-16T15:18:19;97609.47;;;10.36;71.73
55032;BME280;40928;51.076;7.950;2023-02-16T15:20:49;97605.59;;;10.13;73.21
55032;BME280;40928;51.076;7.950;2023-02-16T15:23:33;97604.09;;;9.99;73.85
55032;BME280;40928;51.076;7.950;2023-02-16T15:26:05;97597.13;;;9.79;74.86
55032;BME280;40928;51.076;7.950;2023-02-16T15:28:34;97601.53;;;9.67;75.92
55032;BME280;40928;51.076;7.950;2023-02-16T15:31:06;97600.28;;;9.44;77.31
55032;BME280;40928;51.076;7.950;2023-02-16T15:33:43;97598.53;;;9.31;78.03
55032;BME280;40928;51.076;7.950;2023-02-16T15:36:11;97584.69;;;9.16;79.05
55032;BME280;40928;51.076;7.950;2023-02-16T15:38:40;97591.22;;;8.88;81.08
55032;BME280;40928;51.076;7.950;2023-02-16T15:41:08;97599.00;;;8.89;81.02
55032;BME280;40928;51.076;7.950;2023-02-16T15:43:46;97596.59;;;8.81;81.42
55032;BME280;40928;51.076;7.950;2023-02-16T15:48:48;97600.06;;;8.81;81.93
55032;BME280;40928;51.076;7.950;2023-02-16T15:53:53;97612.22;;;8.71;82.15
55032;BME280;40928;51.076;7.950;2023-02-16T15:59:38;97606.34;;;8.55;83.01